CYZFCYFS

Guest
Details From CYZF - Yellowknife
To CYFS - Fort Simpson
Flight Number -
Tags Decoded
Created
Modified
Stats Distance 311 nm / 577 km
Max Altitude 10,000 ft / 3,048 m
Waypoints 4
Social Downloads 1
Likes 0
Share VATSIM

Download

Looking for another format? Having issues loading an existing format? Contact us
Advertisement - Login to hide

Notes

Decoded

Route

CYZF CYFR CYHY CYFS

ID Type Via Altitude Latitude Longitude Leg Dist Tot Dist Heading (true) Name
O CYZF APT - 0 ft / 0 m 62.47133˚ -114.45350˚ - 0 nm - -
CYFR APT - 10,000 ft / 3,048 m 61.18497˚ -113.69714˚ 80 nm 80 nm 164° / 165° -
CYHY APT - 10,000 ft / 3,048 m 60.83944˚ -115.78944˚ 64 nm 144 nm 252° / 250° -
O CYFS APT - 0 ft / 0 m 61.76778˚ -121.24371˚ 166 nm 311 nm 292° / 287° -

Altitude Profile

Advertisement - Login to hide

Weather


0- 5 10 15 20 25 30 35+ Temperature / ° C

Clouds and Precipitation
Forecast for 2017-12-15 00:00 UTC. Updated 2 hours ago

Ground ~20,000 ft ~40,000 ft Winds

CYZF

Details ICAO CYZF (YZF)
Name YELLOWKNIFE
Region Canada
Timezone America/Yellowknife (UTC-7.0)
Stats Elevation 675 ft / 206 m (AMSL)
Location 62.465666° -114.441417°
Runways 2
Magnetic Variation 16.585° E

METAR

CYZF 142100Z 08011KT 15SM FEW050 BKN080 BKN100 M16/M18 A2994 RMK SC1AC7AC1 SC TR AC TR SLP165

Decode

TAF

TAF TAF CYZF 141744Z 1418/1518 10012KT P6SM FEW040 BKN100 FM142100 10015G25KT P6SM BKN040 OVC100 TEMPO 1421/1506 4SM -SN BKN020 OVC040 FM150600 10015G25KT 4SM -SN OVC015 TEMPO 1506/1518 1SM -SN BLSN OVC006 RMK NXT FCST BY 150000Z

Decode

Departure Runways

ID Width Length Bearing (true) Bearing (mag) Surface Threshold Offset Overrun Length
09 150 ft / 46 m 4,902 ft / 1,494 m 116.52° 99.94° Asphalt 0 ft / 0 m 0 ft / 0 m
15 150 ft / 46 m 7,441 ft / 2,268 m 175.66° 159.08° Asphalt 0 ft / 0 m 0 ft / 0 m
27 150 ft / 46 m 4,902 ft / 1,494 m 296.54° 279.96° Asphalt 0 ft / 0 m 0 ft / 0 m
33 150 ft / 46 m 7,441 ft / 2,268 m 355.67° 339.09° Asphalt 0 ft / 0 m 0 ft / 0 m

CYFS

Details ICAO CYFS (YFS)
Name FORT SIMPSON
Region Canada
Timezone America/Yellowknife (UTC-7.0)
Stats Elevation 555 ft / 169 m (AMSL)
Location 61.760281° -121.236665°
Runways 1
Magnetic Variation 19.165° E

METAR

CYFS 142100Z 09004KT 060V160 15SM OVC009 M08/M10 A2974 RMK ST8 SLP089

Decode

TAF

TAF TAF CYFS 141744Z 1418/1506 12005KT P6SM BKN008 OVC020 TEMPO 1418/1506 4SM -SN SCT008 BKN020 BKN100 PROB30 1500/1506 2SM -SN -FZRA BR BKN004 RMK NXT FCST BY 150000Z

Decode

Destination Runways

ID Width Length Bearing (true) Bearing (mag) Surface Threshold Offset Overrun Length
13 150 ft / 46 m 5,986 ft / 1,825 m 156.01° 136.85° Asphalt 0 ft / 0 m 0 ft / 0 m
31 150 ft / 46 m 5,986 ft / 1,825 m 336.02° 316.86° Asphalt 0 ft / 0 m 0 ft / 0 m

Popular Alternatives